Terminal Aerodrome Forecast
Issued by NWS St Louis, MO

Home | Current Version | Previous Version | Text Only | Print | Product List | Glossary On
Versions: 1 2 3 4 5 6 7 8 9 10 11 12 13 14 15 16 17 18 19 20 21 22 23 24 25
318
FTUS43 KLSX 212340
TAFCOU
TAF
KCOU 212340Z 2200/2224 17010KT P6SM BKN045
     FM220300 16011KT 5SM -SHRA VCTS OVC025CB
     FM220900 18007KT P6SM BKN120
     FM221200 20014G22KT P6SM SCT250
     FM221700 22017G27KT P6SM BKN030=

USA.gov is the U.S. government's official web portal to all federal, state and local government web resources and services.